Time;durP1;ratioP1;P1;durP2;ratioP2;P2;SDS_P1;SDS_P2;PMS_P1;PMS_P2;Temp;Humidity;BMP_temperature;BMP_pressure;BME280_temperature;BME280_humidity;BME280_pressure;Samples;Min_cycle;Max_cycle;Signal;HPM_P1;HPM_P2
2019/06/20 00:00:17;;;;;;;5.25;4.75;;;;;;;18.71;59.60059;94806.19;;;;
2019/06/20 00:01:27;;;;;;;5.25;4.75;;;;;;;18.71;59.60059;94806.19;;;;
2019/06/20 00:02:28;;;;;;;5.25;4.75;;;;;;;18.71;59.60059;94806.19;;;;
2019/06/20 00:03:29;;;;;;;6.05;4.5;;;;;;;19.76;58.52246;94815.42;;;;
2019/06/20 00:04:30;;;;;;;6.05;4.5;;;;;;;19.76;58.52246;94815.42;;;;
2019/06/20 00:05:31;;;;;;;6.05;4.5;;;;;;;19.76;58.52246;94815.42;;;;
2019/06/20 00:06:32;;;;;;;6.05;4.5;;;;;;;19.76;58.52246;94815.42;;;;
2019/06/20 00:07:33;;;;;;;6.05;4.5;;;;;;;19.76;58.52246;94815.42;;;;
2019/06/20 00:08:34;;;;;;;6.05;4.5;;;;;;;19.76;58.52246;94815.42;;;;
2019/06/20 00:09:35;;;;;;;6.05;4.5;;;;;;;19.76;58.52246;94815.42;;;;
2019/06/20 00:10:36;;;;;;;6.05;4.5;;;;;;;19.76;58.52246;94815.42;;;;
2019/06/20 00:11:37;;;;;;;6.05;4.5;;;;;;;19.76;58.52246;94815.42;;;;
2019/06/20 00:12:38;;;;;;;6.05;4.5;;;;;;;19.76;58.52246;94815.42;;;;
2019/06/20 00:13:39;;;;;;;6.15;3.9;;;;;;;20.07;57.99121;94796.83;;;;
2019/06/20 00:14:40;;;;;;;6.15;3.9;;;;;;;20.07;57.99121;94796.83;;;;
2019/06/20 00:15:41;;;;;;;6.15;3.9;;;;;;;20.07;57.99121;94796.83;;;;
2019/06/20 00:16:43;;;;;;;6.15;3.9;;;;;;;20.07;57.99121;94796.83;;;;
2019/06/20 00:17:44;;;;;;;6.15;3.9;;;;;;;20.07;57.99121;94796.83;;;;
2019/06/20 00:18:45;;;;;;;6.15;3.9;;;;;;;20.07;57.99121;94796.83;;;;
2019/06/20 00:19:46;;;;;;;6.15;3.9;;;;;;;20.07;57.99121;94796.83;;;;
2019/06/20 00:20:47;;;;;;;6.15;3.9;;;;;;;20.07;57.99121;94796.83;;;;
2019/06/20 00:21:48;;;;;;;6.15;3.9;;;;;;;20.07;57.99121;94796.83;;;;
2019/06/20 00:22:49;;;;;;;6.15;3.9;;;;;;;20.07;57.99121;94796.83;;;;
2019/06/20 00:23:50;;;;;;;6.15;3.9;;;;;;;20.07;57.99121;94796.83;;;;
2019/06/20 00:24:51;;;;;;;6.15;3.9;;;;;;;20.07;57.99121;94796.83;;;;
2019/06/20 00:25:52;;;;;;;6.15;3.9;;;;;;;20.07;57.99121;94796.83;;;;
2019/06/20 00:26:53;;;;;;;6.15;3.9;;;;;;;20.07;57.99121;94796.83;;;;
2019/06/20 00:27:54;;;;;;;6.15;3.9;;;;;;;20.07;57.99121;94796.83;;;;
2019/06/20 00:28:55;;;;;;;6.15;3.9;;;;;;;20.07;57.99121;94796.83;;;;
2019/06/20 00:29:56;;;;;;;6.15;3.9;;;;;;;20.07;57.99121;94796.83;;;;
2019/06/20 00:30:57;;;;;;;6.15;3.9;;;;;;;20.07;57.99121;94796.83;;;;
2019/06/20 00:31:59;;;;;;;6.15;3.9;;;;;;;20.07;57.99121;94796.83;;;;
2019/06/20 00:33:00;;;;;;;6.15;3.9;;;;;;;20.07;57.99121;94796.83;;;;
2019/06/20 00:34:01;;;;;;;6.15;3.9;;;;;;;20.07;57.99121;94796.83;;;;
2019/06/20 00:35:02;;;;;;;6.15;3.9;;;;;;;20.07;57.99121;94796.83;;;;
2019/06/20 00:36:03;;;;;;;6.15;3.9;;;;;;;20.07;57.99121;94796.83;;;;
2019/06/20 00:37:04;;;;;;;6.15;3.9;;;;;;;20.07;57.99121;94796.83;;;;
2019/06/20 00:38:05;;;;;;;6.15;3.9;;;;;;;20.07;57.99121;94796.83;;;;
2019/06/20 00:39:06;;;;;;;6.15;3.9;;;;;;;20.07;57.99121;94796.83;;;;
2019/06/20 00:40:07;;;;;;;6.15;3.9;;;;;;;20.07;57.99121;94796.83;;;;
2019/06/20 00:41:08;;;;;;;6.15;3.9;;;;;;;20.07;57.99121;94796.83;;;;
2019/06/20 00:42:09;;;;;;;6.15;3.9;;;;;;;20.07;57.99121;94796.83;;;;
2019/06/20 00:43:10;;;;;;;6.15;3.9;;;;;;;20.07;57.99121;94796.83;;;;
2019/06/20 00:44:11;;;;;;;6.15;3.9;;;;;;;20.07;57.99121;94796.83;;;;
2019/06/20 00:45:12;;;;;;;6.15;3.9;;;;;;;20.07;57.99121;94796.83;;;;
2019/06/20 00:46:14;;;;;;;6.15;3.9;;;;;;;20.07;57.99121;94796.83;;;;
2019/06/20 00:47:15;;;;;;;6.15;3.9;;;;;;;20.07;57.99121;94796.83;;;;
2019/06/20 00:48:16;;;;;;;6.15;3.9;;;;;;;20.07;57.99121;94796.83;;;;
2019/06/20 00:49:17;;;;;;;6.15;3.9;;;;;;;20.07;57.99121;94796.83;;;;
2019/06/20 00:50:18;;;;;;;6.15;3.9;;;;;;;20.07;57.99121;94796.83;;;;
2019/06/20 00:51:19;;;;;;;6.15;3.9;;;;;;;20.07;57.99121;94796.83;;;;
2019/06/20 00:52:20;;;;;;;6.15;3.9;;;;;;;20.07;57.99121;94796.83;;;;
2019/06/20 00:53:21;;;;;;;6.15;3.9;;;;;;;20.07;57.99121;94796.83;;;;
2019/06/20 00:54:22;;;;;;;6.15;3.9;;;;;;;20.07;57.99121;94796.83;;;;
2019/06/20 00:55:24;;;;;;;6.15;3.9;;;;;;;20.07;57.99121;94796.83;;;;
2019/06/20 00:56:25;;;;;;;6.15;3.9;;;;;;;20.07;57.99121;94796.83;;;;
2019/06/20 00:57:26;;;;;;;6.15;3.9;;;;;;;20.07;57.99121;94796.83;;;;
2019/06/20 01:38:29;;;;;;;2.95;2;;;;;;;20.07;55.02344;94880.44;;;;
2019/06/20 01:39:30;;;;;;;2.95;2;;;;;;;20.07;55.02344;94880.44;;;;
2019/06/20 01:40:31;;;;;;;2.95;2;;;;;;;20.07;55.02344;94880.44;;;;
2019/06/20 01:41:32;;;;;;;2.95;2;;;;;;;20.07;55.02344;94880.44;;;;
2019/06/20 01:42:33;;;;;;;2.95;2;;;;;;;20.07;55.02344;94880.44;;;;
2019/06/20 01:43:35;;;;;;;2.95;2;;;;;;;20.07;55.02344;94880.44;;;;
2019/06/20 01:44:36;;;;;;;2.95;2;;;;;;;20.07;55.02344;94880.44;;;;
2019/06/20 01:45:37;;;;;;;2.95;2;;;;;;;20.07;55.02344;94880.44;;;;
2019/06/20 01:46:38;;;;;;;2.95;2;;;;;;;20.07;55.02344;94880.44;;;;
2019/06/20 01:47:39;;;;;;;2.95;2;;;;;;;20.07;55.02344;94880.44;;;;
2019/06/20 01:48:40;;;;;;;3.100001;2.2;;;;;;;20;55.08105;94882.76;;;;
2019/06/20 01:49:41;;;;;;;3.100001;2.2;;;;;;;20;55.08105;94882.76;;;;
2019/06/20 01:50:42;;;;;;;3.100001;2.2;;;;;;;20;55.08105;94882.76;;;;
2019/06/20 01:51:44;;;;;;;3.100001;2.2;;;;;;;20;55.08105;94882.76;;;;
2019/06/20 01:52:45;;;;;;;3.100001;2.2;;;;;;;20;55.08105;94882.76;;;;
2019/06/20 01:53:46;;;;;;;3.100001;2.2;;;;;;;20;55.08105;94882.76;;;;
2019/06/20 01:54:47;;;;;;;3.100001;2.2;;;;;;;20;55.08105;94882.76;;;;
2019/06/20 01:55:48;;;;;;;3.100001;2.2;;;;;;;20;55.08105;94882.76;;;;
2019/06/20 01:56:50;;;;;;;3.100001;2.2;;;;;;;20;55.08105;94882.76;;;;
2019/06/20 01:57:51;;;;;;;3.100001;2.2;;;;;;;20;55.08105;94882.76;;;;
2019/06/20 01:58:52;;;;;;;3.100001;2.2;;;;;;;20;55.08105;94882.76;;;;
2019/06/20 01:59:53;;;;;;;2.4;2.2;;;;;;;19.92;55.22461;94881.68;;;;
2019/06/20 02:00:54;;;;;;;2.4;2.2;;;;;;;19.92;55.22461;94881.68;;;;
2019/06/20 02:01:56;;;;;;;2.4;2.2;;;;;;;19.92;55.22461;94881.68;;;;
2019/06/20 02:02:58;;;;;;;2.4;2.2;;;;;;;19.92;55.22461;94881.68;;;;
2019/06/20 02:03:59;;;;;;;2.4;2.2;;;;;;;19.92;55.22461;94881.68;;;;
2019/06/20 02:05:00;;;;;;;2.4;2.2;;;;;;;19.92;55.22461;94881.68;;;;
2019/06/20 02:06:01;;;;;;;2.4;2.2;;;;;;;19.92;55.22461;94881.68;;;;
2019/06/20 02:07:02;;;;;;;2.4;2.2;;;;;;;19.92;55.22461;94881.68;;;;
2019/06/20 02:08:03;;;;;;;2.4;2.2;;;;;;;19.92;55.22461;94881.68;;;;
2019/06/20 02:09:04;;;;;;;2.4;2.2;;;;;;;19.92;55.22461;94881.68;;;;
2019/06/20 02:10:06;;;;;;;2.4;2.2;;;;;;;19.92;55.22461;94881.68;;;;
2019/06/20 02:11:07;;;;;;;2.4;2.2;;;;;;;19.92;55.22461;94881.68;;;;
2019/06/20 02:12:08;;;;;;;2.4;2.2;;;;;;;19.92;55.22461;94881.68;;;;
2019/06/20 02:13:10;;;;;;;2.4;2.2;;;;;;;19.92;55.22461;94881.68;;;;
2019/06/20 02:14:11;;;;;;;2.4;2.2;;;;;;;19.92;55.22461;94881.68;;;;
2019/06/20 02:15:12;;;;;;;2.4;2.2;;;;;;;19.92;55.22461;94881.68;;;;
2019/06/20 02:16:13;;;;;;;2.4;2.2;;;;;;;19.92;55.22461;94881.68;;;;
2019/06/20 02:17:14;;;;;;;2.4;2.2;;;;;;;19.92;55.22461;94881.68;;;;
2019/06/20 02:18:15;;;;;;;2.4;2.2;;;;;;;19.92;55.22461;94881.68;;;;
2019/06/20 02:19:16;;;;;;;2.4;2.2;;;;;;;19.92;55.22461;94881.68;;;;
2019/06/20 02:20:17;;;;;;;2.4;2.2;;;;;;;19.92;55.22461;94881.68;;;;
2019/06/20 02:21:34;;;;;;;2.4;2.2;;;;;;;19.92;55.22461;94881.68;;;;
2019/06/20 02:22:35;;;;;;;2.4;2.2;;;;;;;19.92;55.22461;94881.68;;;;
2019/06/20 02:23:36;;;;;;;2.4;2.2;;;;;;;19.92;55.22461;94881.68;;;;
2019/06/20 02:24:38;;;;;;;2.4;2.2;;;;;;;19.92;55.22461;94881.68;;;;
2019/06/20 02:25:39;;;;;;;2.4;2.2;;;;;;;19.92;55.22461;94881.68;;;;
2019/06/20 02:26:40;;;;;;;2.4;2.2;;;;;;;19.92;55.22461;94881.68;;;;
2019/06/20 02:27:41;;;;;;;2.4;2.2;;;;;;;19.92;55.22461;94881.68;;;;
2019/06/20 02:28:42;;;;;;;2.4;2.2;;;;;;;19.92;55.22461;94881.68;;;;
2019/06/20 02:29:43;;;;;;;2.4;2.2;;;;;;;19.92;55.22461;94881.68;;;;
2019/06/20 02:30:45;;;;;;;2.4;2.2;;;;;;;19.92;55.22461;94881.68;;;;
2019/06/20 02:31:46;;;;;;;2.4;2.2;;;;;;;19.92;55.22461;94881.68;;;;
2019/06/20 02:32:47;;;;;;;2.4;2.2;;;;;;;19.92;55.22461;94881.68;;;;
2019/06/20 02:33:48;;;;;;;2.4;2.2;;;;;;;19.92;55.22461;94881.68;;;;
2019/06/20 02:34:49;;;;;;;2.4;2.2;;;;;;;19.92;55.22461;94881.68;;;;
2019/06/20 02:35:50;;;;;;;2.4;2.2;;;;;;;19.92;55.22461;94881.68;;;;
2019/06/20 02:36:51;;;;;;;2.4;2.2;;;;;;;19.92;55.22461;94881.68;;;;
2019/06/20 02:37:52;;;;;;;2.4;2.2;;;;;;;19.92;55.22461;94881.68;;;;
2019/06/20 02:38:54;;;;;;;2.4;2.2;;;;;;;19.92;55.22461;94881.68;;;;
2019/06/20 02:39:55;;;;;;;2.4;2.2;;;;;;;19.92;55.22461;94881.68;;;;
2019/06/20 02:40:56;;;;;;;2.4;2.2;;;;;;;19.92;55.22461;94881.68;;;;
2019/06/20 02:41:57;;;;;;;2.4;2.2;;;;;;;19.92;55.22461;94881.68;;;;
2019/06/20 02:42:58;;;;;;;2.4;2.2;;;;;;;19.92;55.22461;94881.68;;;;
2019/06/20 02:43:59;;;;;;;2.4;2.2;;;;;;;19.92;55.22461;94881.68;;;;
2019/06/20 04:49:07;;;;;;;4.550001;4.05;;;;;;;18.28;64.20898;94951.82;;;;
2019/06/20 04:50:08;;;;;;;4.550001;4.05;;;;;;;18.28;64.20898;94951.82;;;;
2019/06/20 04:51:09;;;;;;;4.550001;4.05;;;;;;;18.28;64.20898;94951.82;;;;
2019/06/20 04:52:10;;;;;;;4.550001;4.05;;;;;;;18.28;64.20898;94951.82;;;;
2019/06/20 04:53:11;;;;;;;4.550001;4.05;;;;;;;18.28;64.20898;94951.82;;;;
2019/06/20 04:54:12;;;;;;;4.550001;4.05;;;;;;;18.28;64.20898;94951.82;;;;
2019/06/20 04:55:13;;;;;;;4.550001;4.05;;;;;;;18.28;64.20898;94951.82;;;;
2019/06/20 04:56:14;;;;;;;4.550001;4.05;;;;;;;18.28;64.20898;94951.82;;;;
2019/06/20 04:57:15;;;;;;;4.550001;4.05;;;;;;;18.28;64.20898;94951.82;;;;
2019/06/20 04:58:16;;;;;;;4.550001;4.05;;;;;;;18.28;64.20898;94951.82;;;;
2019/06/20 04:59:17;;;;;;;4.550001;4.05;;;;;;;18.28;64.20898;94951.82;;;;
2019/06/20 05:00:18;;;;;;;4.550001;4.05;;;;;;;18.28;64.20898;94951.82;;;;
2019/06/20 05:01:19;;;;;;;4.550001;4.05;;;;;;;18.28;64.20898;94951.82;;;;
2019/06/20 05:02:32;;;;;;;4.550001;4.05;;;;;;;18.28;64.20898;94951.82;;;;
2019/06/20 05:03:33;;;;;;;4.550001;4.05;;;;;;;18.28;64.20898;94951.82;;;;
2019/06/20 05:04:34;;;;;;;4.550001;4.05;;;;;;;18.28;64.20898;94951.82;;;;
2019/06/20 05:05:35;;;;;;;4.550001;4.05;;;;;;;18.28;64.20898;94951.82;;;;
2019/06/20 05:06:36;;;;;;;4.550001;4.05;;;;;;;18.28;64.20898;94951.82;;;;
2019/06/20 05:07:37;;;;;;;4.550001;4.05;;;;;;;18.28;64.20898;94951.82;;;;
2019/06/20 05:08:38;;;;;;;4.550001;4.05;;;;;;;18.28;64.20898;94951.82;;;;
2019/06/20 05:09:39;;;;;;;4.550001;4.05;;;;;;;18.28;64.20898;94951.82;;;;
2019/06/20 05:10:40;;;;;;;4.550001;4.05;;;;;;;18.28;64.20898;94951.82;;;;
2019/06/20 05:11:41;;;;;;;4.550001;4.05;;;;;;;18.28;64.20898;94951.82;;;;
2019/06/20 05:12:43;;;;;;;4.550001;4.05;;;;;;;18.28;64.20898;94951.82;;;;
2019/06/20 05:13:44;;;;;;;4.550001;4.05;;;;;;;18.28;64.20898;94951.82;;;;
2019/06/20 05:14:45;;;;;;;4.550001;4.05;;;;;;;18.28;64.20898;94951.82;;;;
2019/06/20 05:15:46;;;;;;;4.550001;4.05;;;;;;;18.28;64.20898;94951.82;;;;
2019/06/20 05:16:47;;;;;;;4.550001;4.05;;;;;;;18.28;64.20898;94951.82;;;;
2019/06/20 05:17:48;;;;;;;4.550001;4.05;;;;;;;18.28;64.20898;94951.82;;;;
2019/06/20 05:18:49;;;;;;;4.550001;4.05;;;;;;;18.28;64.20898;94951.82;;;;
2019/06/20 05:19:50;;;;;;;4.550001;4.05;;;;;;;18.28;64.20898;94951.82;;;;
2019/06/20 05:20:51;;;;;;;4.550001;4.05;;;;;;;18.28;64.20898;94951.82;;;;
2019/06/20 05:21:52;;;;;;;4.550001;4.05;;;;;;;18.28;64.20898;94951.82;;;;
2019/06/20 05:22:53;;;;;;;4.550001;4.05;;;;;;;18.28;64.20898;94951.82;;;;
2019/06/20 05:23:54;;;;;;;4.550001;4.05;;;;;;;18.28;64.20898;94951.82;;;;
2019/06/20 05:24:55;;;;;;;4.550001;4.05;;;;;;;18.28;64.20898;94951.82;;;;
2019/06/20 05:25:56;;;;;;;4.550001;4.05;;;;;;;18.28;64.20898;94951.82;;;;
2019/06/20 05:26:58;;;;;;;4.550001;4.05;;;;;;;18.28;64.20898;94951.82;;;;
2019/06/20 05:27:59;;;;;;;4.550001;4.05;;;;;;;18.28;64.20898;94951.82;;;;
2019/06/20 05:29:00;;;;;;;4.550001;4.05;;;;;;;18.28;64.20898;94951.82;;;;
2019/06/20 05:30:01;;;;;;;4.550001;4.05;;;;;;;18.28;64.20898;94951.82;;;;
2019/06/20 05:31:04;;;;;;;4.550001;4.05;;;;;;;18.28;64.20898;94951.82;;;;
2019/06/20 05:32:05;;;;;;;4.25;3.6;;;;;;;19.1;65.5752;94963.75;;;;
2019/06/20 05:33:06;;;;;;;4.25;3.6;;;;;;;19.1;65.5752;94963.75;;;;
2019/06/20 05:34:07;;;;;;;4.25;3.6;;;;;;;19.1;65.5752;94963.75;;;;
2019/06/20 05:35:08;;;;;;;4.25;3.6;;;;;;;19.1;65.5752;94963.75;;;;
2019/06/20 05:36:09;;;;;;;4.25;3.6;;;;;;;19.1;65.5752;94963.75;;;;
2019/06/20 05:37:10;;;;;;;4.25;3.6;;;;;;;19.1;65.5752;94963.75;;;;
2019/06/20 05:38:11;;;;;;;4.25;3.6;;;;;;;19.1;65.5752;94963.75;;;;
2019/06/20 05:39:12;;;;;;;4.25;3.6;;;;;;;19.1;65.5752;94963.75;;;;
2019/06/20 05:40:13;;;;;;;4.25;3.6;;;;;;;19.1;65.5752;94963.75;;;;
2019/06/20 05:41:20;;;;;;;4.25;3.6;;;;;;;19.1;65.5752;94963.75;;;;
2019/06/20 05:42:21;;;;;;;4.25;3.6;;;;;;;19.1;65.5752;94963.75;;;;
2019/06/20 05:43:22;;;;;;;4.25;3.6;;;;;;;19.1;65.5752;94963.75;;;;
2019/06/20 05:44:23;;;;;;;4.25;3.6;;;;;;;19.1;65.5752;94963.75;;;;
2019/06/20 05:45:24;;;;;;;4.25;3.6;;;;;;;19.1;65.5752;94963.75;;;;
2019/06/20 05:46:25;;;;;;;4.25;3.6;;;;;;;19.1;65.5752;94963.75;;;;
2019/06/20 05:47:26;;;;;;;4.25;3.6;;;;;;;19.1;65.5752;94963.75;;;;
2019/06/20 05:48:28;;;;;;;4.25;3.6;;;;;;;19.1;65.5752;94963.75;;;;
2019/06/20 05:49:29;;;;;;;4.25;3.6;;;;;;;19.1;65.5752;94963.75;;;;
2019/06/20 05:50:30;;;;;;;4.25;3.6;;;;;;;19.1;65.5752;94963.75;;;;
2019/06/20 05:51:31;;;;;;;4.25;3.6;;;;;;;19.1;65.5752;94963.75;;;;
2019/06/20 05:52:32;;;;;;;4.25;3.6;;;;;;;19.1;65.5752;94963.75;;;;
2019/06/20 05:53:33;;;;;;;4.25;3.6;;;;;;;19.1;65.5752;94963.75;;;;
2019/06/20 05:54:34;;;;;;;4.25;3.6;;;;;;;19.1;65.5752;94963.75;;;;
2019/06/20 05:55:35;;;;;;;4.25;3.6;;;;;;;19.1;65.5752;94963.75;;;;
2019/06/20 05:56:36;;;;;;;4.25;3.6;;;;;;;19.1;65.5752;94963.75;;;;
2019/06/20 05:57:37;;;;;;;4.25;3.6;;;;;;;19.1;65.5752;94963.75;;;;
2019/06/20 05:58:38;;;;;;;4.25;3.6;;;;;;;19.1;65.5752;94963.75;;;;
2019/06/20 05:59:39;;;;;;;4.25;3.6;;;;;;;19.1;65.5752;94963.75;;;;
2019/06/20 06:00:40;;;;;;;4.25;3.6;;;;;;;19.1;65.5752;94963.75;;;;
2019/06/20 06:01:41;;;;;;;4.25;3.6;;;;;;;19.1;65.5752;94963.75;;;;
2019/06/20 06:02:42;;;;;;;4.25;3.6;;;;;;;19.1;65.5752;94963.75;;;;
2019/06/20 06:03:44;;;;;;;4.25;3.6;;;;;;;19.1;65.5752;94963.75;;;;
2019/06/20 06:04:45;;;;;;;4.25;3.6;;;;;;;19.1;65.5752;94963.75;;;;
2019/06/20 06:05:46;;;;;;;4.25;3.6;;;;;;;19.1;65.5752;94963.75;;;;
2019/06/20 06:06:47;;;;;;;4.25;3.6;;;;;;;19.1;65.5752;94963.75;;;;
2019/06/20 06:07:48;;;;;;;4.25;3.6;;;;;;;19.1;65.5752;94963.75;;;;
2019/06/20 06:08:49;;;;;;;4.25;3.6;;;;;;;19.1;65.5752;94963.75;;;;
2019/06/20 06:09:50;;;;;;;4.25;3.6;;;;;;;19.1;65.5752;94963.75;;;;
2019/06/20 06:10:51;;;;;;;4.25;3.6;;;;;;;19.1;65.5752;94963.75;;;;
2019/06/20 06:11:52;;;;;;;4.25;3.6;;;;;;;19.1;65.5752;94963.75;;;;
2019/06/20 06:12:53;;;;;;;4.25;3.6;;;;;;;19.1;65.5752;94963.75;;;;
2019/06/20 06:13:54;;;;;;;4.25;3.6;;;;;;;19.1;65.5752;94963.75;;;;
2019/06/20 06:14:56;;;;;;;4.25;3.6;;;;;;;19.1;65.5752;94963.75;;;;
2019/06/20 06:15:57;;;;;;;4.25;3.6;;;;;;;19.1;65.5752;94963.75;;;;
2019/06/20 08:11:04;;;;;;;3.3;3;;;;;;;28.18;48.96289;95027.76;;;;
2019/06/20 08:12:05;;;;;;;3.3;3;;;;;;;28.18;48.96289;95027.76;;;;
2019/06/20 08:13:06;;;;;;;3.3;3;;;;;;;28.18;48.96289;95027.76;;;;
2019/06/20 08:14:07;;;;;;;3.3;3;;;;;;;28.18;48.96289;95027.76;;;;
2019/06/20 08:15:08;;;;;;;3.3;3;;;;;;;28.18;48.96289;95027.76;;;;
2019/06/20 08:16:10;;;;;;;3.3;3;;;;;;;28.18;48.96289;95027.76;;;;
2019/06/20 08:17:11;;;;;;;3.3;3;;;;;;;28.18;48.96289;95027.76;;;;
2019/06/20 08:18:12;;;;;;;3.3;3;;;;;;;28.18;48.96289;95027.76;;;;
2019/06/20 08:19:13;;;;;;;3.3;3;;;;;;;28.18;48.96289;95027.76;;;;
2019/06/20 08:20:14;;;;;;;3.3;3;;;;;;;28.18;48.96289;95027.76;;;;
2019/06/20 08:21:15;;;;;;;3.3;3;;;;;;;28.18;48.96289;95027.76;;;;
2019/06/20 08:22:16;;;;;;;3.3;3;;;;;;;28.18;48.96289;95027.76;;;;
2019/06/20 08:23:17;;;;;;;3.3;3;;;;;;;28.18;48.96289;95027.76;;;;
2019/06/20 08:24:18;;;;;;;3.3;3;;;;;;;28.18;48.96289;95027.76;;;;
2019/06/20 08:25:19;;;;;;;3.3;3;;;;;;;28.18;48.96289;95027.76;;;;
2019/06/20 08:26:20;;;;;;;3.3;3;;;;;;;28.18;48.96289;95027.76;;;;
2019/06/20 08:27:47;;;;;;;3.3;3;;;;;;;28.18;48.96289;95027.76;;;;
2019/06/20 08:28:48;;;;;;;3.3;3;;;;;;;28.18;48.96289;95027.76;;;;
2019/06/20 08:29:50;;;;;;;3.3;3;;;;;;;28.18;48.96289;95027.76;;;;
2019/06/20 08:30:51;;;;;;;3.3;3;;;;;;;28.18;48.96289;95027.76;;;;
2019/06/20 08:31:52;;;;;;;2.85;2.65;;;;;;;28.3;48.0332;95029.1;;;;
2019/06/20 08:32:53;;;;;;;2.85;2.65;;;;;;;28.3;48.0332;95029.1;;;;
2019/06/20 08:33:54;;;;;;;2.85;2.65;;;;;;;28.3;48.0332;95029.1;;;;
2019/06/20 08:34:55;;;;;;;2.85;2.65;;;;;;;28.3;48.0332;95029.1;;;;
2019/06/20 08:35:56;;;;;;;2.85;2.65;;;;;;;28.3;48.0332;95029.1;;;;
2019/06/20 08:36:57;;;;;;;2.85;2.65;;;;;;;28.3;48.0332;95029.1;;;;
2019/06/20 08:37:58;;;;;;;2.85;2.65;;;;;;;28.3;48.0332;95029.1;;;;
2019/06/20 08:38:59;;;;;;;2.85;2.65;;;;;;;28.3;48.0332;95029.1;;;;
2019/06/20 08:40:00;;;;;;;2.85;2.65;;;;;;;28.3;48.0332;95029.1;;;;
2019/06/20 08:41:02;;;;;;;2.85;2.65;;;;;;;28.3;48.0332;95029.1;;;;
2019/06/20 08:42:03;;;;;;;2.85;2.65;;;;;;;28.3;48.0332;95029.1;;;;
2019/06/20 08:43:04;;;;;;;2.85;2.65;;;;;;;28.3;48.0332;95029.1;;;;
2019/06/20 08:44:06;;;;;;;2.85;2.65;;;;;;;28.3;48.0332;95029.1;;;;
2019/06/20 08:45:07;;;;;;;2.85;2.65;;;;;;;28.3;48.0332;95029.1;;;;
2019/06/20 08:46:08;;;;;;;2.85;2.65;;;;;;;28.3;48.0332;95029.1;;;;
2019/06/20 08:47:09;;;;;;;2.85;2.65;;;;;;;28.3;48.0332;95029.1;;;;
2019/06/20 08:48:10;;;;;;;2.85;2.65;;;;;;;28.3;48.0332;95029.1;;;;
2019/06/20 08:49:11;;;;;;;2.85;2.65;;;;;;;28.3;48.0332;95029.1;;;;
2019/06/20 08:50:12;;;;;;;2.85;2.65;;;;;;;28.3;48.0332;95029.1;;;;
2019/06/20 08:51:14;;;;;;;2.85;2.65;;;;;;;28.3;48.0332;95029.1;;;;
2019/06/20 08:52:15;;;;;;;2.85;2.65;;;;;;;28.3;48.0332;95029.1;;;;
2019/06/20 08:53:16;;;;;;;2.85;2.65;;;;;;;28.3;48.0332;95029.1;;;;
2019/06/20 08:54:17;;;;;;;2.85;2.65;;;;;;;28.3;48.0332;95029.1;;;;
2019/06/20 08:55:18;;;;;;;2.85;2.65;;;;;;;28.3;48.0332;95029.1;;;;
2019/06/20 08:56:19;;;;;;;2.85;2.65;;;;;;;28.3;48.0332;95029.1;;;;
2019/06/20 08:57:20;;;;;;;2.85;2.65;;;;;;;28.3;48.0332;95029.1;;;;
2019/06/20 08:58:21;;;;;;;2.85;2.65;;;;;;;28.3;48.0332;95029.1;;;;
2019/06/20 08:59:22;;;;;;;2.85;2.65;;;;;;;28.3;48.0332;95029.1;;;;
2019/06/20 09:00:23;;;;;;;2.85;2.65;;;;;;;28.3;48.0332;95029.1;;;;
2019/06/20 09:01:25;;;;;;;2.85;2.65;;;;;;;28.3;48.0332;95029.1;;;;
2019/06/20 09:02:26;;;;;;;2.85;2.65;;;;;;;28.3;48.0332;95029.1;;;;
2019/06/20 09:03:27;;;;;;;2.85;2.65;;;;;;;28.3;48.0332;95029.1;;;;
2019/06/20 09:04:28;;;;;;;2.85;2.65;;;;;;;28.3;48.0332;95029.1;;;;
2019/06/20 09:05:29;;;;;;;2.85;2.65;;;;;;;28.3;48.0332;95029.1;;;;
2019/06/20 09:06:30;;;;;;;2.85;2.65;;;;;;;28.3;48.0332;95029.1;;;;
2019/06/20 09:07:31;;;;;;;2.85;2.65;;;;;;;28.3;48.0332;95029.1;;;;
2019/06/20 09:08:33;;;;;;;2.85;2.65;;;;;;;28.3;48.0332;95029.1;;;;
2019/06/20 09:09:34;;;;;;;2.85;2.65;;;;;;;28.3;48.0332;95029.1;;;;
2019/06/20 09:10:35;;;;;;;2.85;2.65;;;;;;;28.3;48.0332;95029.1;;;;
2019/06/20 09:11:37;;;;;;;2.85;2.65;;;;;;;28.3;48.0332;95029.1;;;;
2019/06/20 09:12:38;;;;;;;2.85;2.65;;;;;;;28.3;48.0332;95029.1;;;;
2019/06/20 09:13:39;;;;;;;2.85;2.65;;;;;;;28.3;48.0332;95029.1;;;;
2019/06/20 09:14:40;;;;;;;2.85;2.65;;;;;;;28.3;48.0332;95029.1;;;;
2019/06/20 09:15:41;;;;;;;2.85;2.65;;;;;;;28.3;48.0332;95029.1;;;;
2019/06/20 09:56:44;;;;;;;3.5;3.2;;;;;;;30.03;42.97363;95039.33;;;;
2019/06/20 09:57:45;;;;;;;3.5;3.2;;;;;;;30.03;42.97363;95039.33;;;;
2019/06/20 09:58:46;;;;;;;3.5;3.2;;;;;;;30.03;42.97363;95039.33;;;;
2019/06/20 09:59:48;;;;;;;3.5;3.2;;;;;;;30.03;42.97363;95039.33;;;;
2019/06/20 10:00:49;;;;;;;3.5;3.2;;;;;;;30.03;42.97363;95039.33;;;;
2019/06/20 10:01:50;;;;;;;3.5;3.2;;;;;;;30.03;42.97363;95039.33;;;;
2019/06/20 10:02:51;;;;;;;3.5;3.2;;;;;;;30.03;42.97363;95039.33;;;;
2019/06/20 10:03:52;;;;;;;3.5;3.2;;;;;;;30.03;42.97363;95039.33;;;;
2019/06/20 10:04:53;;;;;;;3.5;3.2;;;;;;;30.03;42.97363;95039.33;;;;
2019/06/20 10:05:54;;;;;;;3.5;3.2;;;;;;;30.03;42.97363;95039.33;;;;
2019/06/20 10:06:55;;;;;;;3.5;3.2;;;;;;;30.03;42.97363;95039.33;;;;
2019/06/20 10:07:56;;;;;;;3.5;3.2;;;;;;;30.03;42.97363;95039.33;;;;
2019/06/20 10:08:57;;;;;;;3.5;3.2;;;;;;;30.03;42.97363;95039.33;;;;
2019/06/20 10:09:58;;;;;;;3.5;3.2;;;;;;;30.03;42.97363;95039.33;;;;
2019/06/20 10:10:59;;;;;;;3.5;3.2;;;;;;;30.03;42.97363;95039.33;;;;
2019/06/20 10:12:00;;;;;;;3.5;3.2;;;;;;;30.03;42.97363;95039.33;;;;
2019/06/20 10:13:02;;;;;;;3.5;3.2;;;;;;;30.03;42.97363;95039.33;;;;
2019/06/20 10:14:03;;;;;;;3.5;3.2;;;;;;;30.03;42.97363;95039.33;;;;
2019/06/20 10:15:04;;;;;;;3.5;3.2;;;;;;;30.03;42.97363;95039.33;;;;
2019/06/20 10:16:12;;;;;;;3.5;3.2;;;;;;;30.03;42.97363;95039.33;;;;
2019/06/20 10:17:13;;;;;;;3.5;3.2;;;;;;;30.03;42.97363;95039.33;;;;
2019/06/20 10:18:14;;;;;;;3.5;3.2;;;;;;;30.03;42.97363;95039.33;;;;
2019/06/20 10:19:16;;;;;;;3.5;3.2;;;;;;;30.03;42.97363;95039.33;;;;
2019/06/20 10:20:17;;;;;;;3.5;3.2;;;;;;;30.03;42.97363;95039.33;;;;
2019/06/20 10:21:18;;;;;;;3.5;3.2;;;;;;;30.03;42.97363;95039.33;;;;
2019/06/20 10:22:19;;;;;;;3.5;3.2;;;;;;;30.03;42.97363;95039.33;;;;
2019/06/20 10:23:20;;;;;;;3.5;3.2;;;;;;;30.03;42.97363;95039.33;;;;
2019/06/20 10:24:21;;;;;;;3.5;3.2;;;;;;;30.03;42.97363;95039.33;;;;
2019/06/20 10:25:22;;;;;;;3.5;3.2;;;;;;;30.03;42.97363;95039.33;;;;
2019/06/20 10:26:23;;;;;;;3.5;3.2;;;;;;;30.03;42.97363;95039.33;;;;
2019/06/20 10:27:25;;;;;;;3.5;3.2;;;;;;;30.03;42.97363;95039.33;;;;
2019/06/20 10:28:26;;;;;;;3.5;3.2;;;;;;;30.03;42.97363;95039.33;;;;
2019/06/20 10:29:27;;;;;;;3.5;3.2;;;;;;;30.03;42.97363;95039.33;;;;
2019/06/20 10:30:28;;;;;;;3.5;3.2;;;;;;;30.03;42.97363;95039.33;;;;
2019/06/20 10:31:29;;;;;;;3.5;3.2;;;;;;;30.03;42.97363;95039.33;;;;
2019/06/20 10:32:30;;;;;;;3.5;3.2;;;;;;;30.03;42.97363;95039.33;;;;
2019/06/20 10:33:31;;;;;;;3.5;3.2;;;;;;;30.03;42.97363;95039.33;;;;
2019/06/20 10:34:32;;;;;;;3.5;3.2;;;;;;;30.03;42.97363;95039.33;;;;
2019/06/20 10:35:33;;;;;;;3.5;3.2;;;;;;;30.03;42.97363;95039.33;;;;
2019/06/20 10:36:34;;;;;;;3.5;3.2;;;;;;;30.03;42.97363;95039.33;;;;
2019/06/20 10:37:35;;;;;;;3.5;3.2;;;;;;;30.03;42.97363;95039.33;;;;
2019/06/20 10:38:36;;;;;;;3.5;3.2;;;;;;;30.03;42.97363;95039.33;;;;
2019/06/20 10:39:38;;;;;;;3.5;3.2;;;;;;;30.03;42.97363;95039.33;;;;
2019/06/20 10:40:39;;;;;;;3.5;3.2;;;;;;;30.03;42.97363;95039.33;;;;
2019/06/20 11:12:41;;;;;;;3.5;3.2;;;;;;;28.98;49.27441;95033.97;;;;
2019/06/20 11:13:43;;;;;;;3.5;3.2;;;;;;;28.98;49.27441;95033.97;;;;
2019/06/20 11:14:44;;;;;;;3.35;3.15;;;;;;;29.56;44.00977;95028.46;;;;
2019/06/20 11:15:45;;;;;;;3.35;3.15;;;;;;;29.56;44.00977;95028.46;;;;
2019/06/20 11:16:46;;;;;;;3.3;3.1;;;;;;;29.96;43.01172;95018.87;;;;
2019/06/20 11:17:47;;;;;;;3.3;3.1;;;;;;;29.96;43.01172;95018.87;;;;
2019/06/20 11:18:48;;;;;;;3.3;3;;;;;;;30.29;41.26953;95024.39;;;;
2019/06/20 11:19:49;;;;;;;3.3;3;;;;;;;30.29;41.26953;95024.39;;;;
2019/06/20 11:20:50;;;;;;;3.55;3.25;;;;;;;30.59;43.85059;95018.83;;;;
2019/06/20 11:21:51;;;;;;;3.55;3.25;;;;;;;30.59;43.85059;95018.83;;;;
2019/06/20 11:22:52;;;;;;;5.049999;3.2;;;;;;;30.95;41.80469;95017.53;;;;
2019/06/20 11:23:53;;;;;;;5.049999;3.2;;;;;;;30.95;41.80469;95017.53;;;;
2019/06/20 11:24:55;;;;;;;3.25;3.05;;;;;;;31.36;42.31738;95020.08;;;;
2019/06/20 11:25:56;;;;;;;3.25;3.05;;;;;;;31.36;42.31738;95020.08;;;;
2019/06/20 11:26:57;;;;;;;3.25;3.05;;;;;;;31.36;42.31738;95020.08;;;;
2019/06/20 11:27:58;;;;;;;3.25;3.05;;;;;;;31.36;42.31738;95020.08;;;;
2019/06/20 11:28:59;;;;;;;3.25;3.05;;;;;;;31.36;42.31738;95020.08;;;;
2019/06/20 11:30:00;;;;;;;3.25;3.05;;;;;;;31.36;42.31738;95020.08;;;;
2019/06/20 11:31:01;;;;;;;3.25;3.05;;;;;;;31.36;42.31738;95020.08;;;;
2019/06/20 11:32:03;;;;;;;3.25;3.05;;;;;;;31.36;42.31738;95020.08;;;;
2019/06/20 11:33:04;;;;;;;3.25;3.05;;;;;;;31.36;42.31738;95020.08;;;;
2019/06/20 11:34:05;;;;;;;3.25;3.05;;;;;;;31.36;42.31738;95020.08;;;;
2019/06/20 11:35:06;;;;;;;3.25;3.05;;;;;;;31.36;42.31738;95020.08;;;;
2019/06/20 11:36:08;;;;;;;3.25;3.05;;;;;;;31.36;42.31738;95020.08;;;;
2019/06/20 11:37:09;;;;;;;3.25;3.05;;;;;;;31.36;42.31738;95020.08;;;;
2019/06/20 11:38:10;;;;;;;3.25;3.05;;;;;;;31.36;42.31738;95020.08;;;;
2019/06/20 11:39:12;;;;;;;3.25;3.05;;;;;;;31.36;42.31738;95020.08;;;;
2019/06/20 11:40:13;;;;;;;3.25;3.05;;;;;;;31.36;42.31738;95020.08;;;;
2019/06/20 11:41:14;;;;;;;3.25;3.05;;;;;;;31.36;42.31738;95020.08;;;;
2019/06/20 11:42:15;;;;;;;3.25;3.05;;;;;;;31.36;42.31738;95020.08;;;;